Inukjuak Airport
CYPH : now visible

Aeroporto :











RITROVATECI SU...

 
LOGIN :

Iscrizione | Disclaimer

   EN    FR    IT 

 









Sommario :    VFR   VFR Marginale   IFR   IFR Intensivo   IFR Molto Intensivo
Visibilità : 
Base nubi : 
>= 8 km
>= 3000ft
5 / 8 km
1000 / 3000 ft
1500m / 5 km
500 / 1000 ft
800 / 1500m
200 / 500 ft
< 800m
< 200 ft
Simboli :   Temporali  Nebbia  Neve Forte  Precipitazioni Forti  Vento > 20 kt






- Altitudine del aeroporto : 83 ft
- Codice IATA : YPH


CYPH - Inukjuak

ULTIMO METAR :
  • 072202Z AUTO 26010KT 6SM -SN FEW020 BKN031 OVC050 M09/M11 A2968 RMK SLP054

METARs OBSOLETI :
  • 072145Z AUTO 26015KT 5SM -SN FEW023 BKN029 OVC060 M08/M12 A2968 RMK SLP055
  • 072123Z AUTO 26010G16KT 6SM -SN SCT026 BKN034 BKN049 OVC060 M09/M12 A2968 RMK SLP055
  • 072113Z AUTO 26016KT 2 1/4SM -SN BKN027 BKN033 BKN040 OVC055 M09/M11 A2968 RMK SLP056
  • 072100Z AUTO 26011KT 9SM -SN FEW027 SCT044 OVC055 M08/M13 A2968 RMK SLP055
  • 072000Z AUTO 27014KT 9SM -SN FEW028 SCT049 OVC055 M08/M12 A2968 RMK SLP053

TAF AMD TAF CYPH
Valido dal 07 a 21 ore il 08 a 06 ore UTC


072125Z 0721/0806 26015G25KT P6SM BKN025
TEMPO 0721/0803 11/2SM -SHSN BLSN
FM080300 20015G25KT 3/4SM -SN BLSN OVC008 RMK FCST BASED ON AUTO OBS. NXT FCST BY 080000Z



MetMap, La meteo Aeronautica in un colpo d'occhio ! - Copyright ORBIFLY Dicembre 2007 - Disclaimer

ORBIFLY MET'MAP TEAM :

Programmazione e sviluppo : Alexandra Zaïnal
Concezione : Baudouin d'Aumeries
Aiuto per la programmazione : Marc-Olivier Méhu
Supporto tecnico e logistico : Manuel Goepfert
Aiuto per la traduzione : Arnaldo La Scala

Contatto : metmap@orbifly.com




FONTI E CREDITI :

   NOAA       Earth
Advisory